sensor_id;sensor_type;location;lat;lon;timestamp;P1;durP1;ratioP1;P2;durP2;ratioP2
1344;SDS011;15375;48.540;9.268;2024-03-17T00:01:49;7.53;;;5.07;;
1344;SDS011;15375;48.540;9.268;2024-03-17T00:04:14;6.03;;;5.43;;
1344;SDS011;15375;48.540;9.268;2024-03-17T00:06:40;5.20;;;4.70;;
1344;SDS011;15375;48.540;9.268;2024-03-17T00:09:05;9.23;;;5.60;;
1344;SDS011;15375;48.540;9.268;2024-03-17T00:11:34;7.37;;;4.70;;
1344;SDS011;15375;48.540;9.268;2024-03-17T00:14:03;6.17;;;5.10;;
1344;SDS011;15375;48.540;9.268;2024-03-17T00:16:30;13.20;;;6.87;;
1344;SDS011;15375;48.540;9.268;2024-03-17T00:18:55;9.73;;;6.10;;
1344;SDS011;15375;48.540;9.268;2024-03-17T00:21:21;4.50;;;3.90;;
1344;SDS011;15375;48.540;9.268;2024-03-17T00:23:50;5.47;;;4.77;;
1344;SDS011;15375;48.540;9.268;2024-03-17T00:26:15;5.30;;;4.80;;
1344;SDS011;15375;48.540;9.268;2024-03-17T00:28:41;5.17;;;4.67;;
1344;SDS011;15375;48.540;9.268;2024-03-17T00:31:07;5.27;;;4.43;;
1344;SDS011;15375;48.540;9.268;2024-03-17T00:33:35;5.33;;;4.17;;
1344;SDS011;15375;48.540;9.268;2024-03-17T00:36:00;4.97;;;4.47;;
1344;SDS011;15375;48.540;9.268;2024-03-17T00:38:25;4.50;;;3.63;;
1344;SDS011;15375;48.540;9.268;2024-03-17T00:40:51;4.90;;;4.37;;
1344;SDS011;15375;48.540;9.268;2024-03-17T00:43:16;5.43;;;4.50;;
1344;SDS011;15375;48.540;9.268;2024-03-17T00:45:41;5.43;;;4.40;;
1344;SDS011;15375;48.540;9.268;2024-03-17T00:48:07;5.17;;;4.67;;
1344;SDS011;15375;48.540;9.268;2024-03-17T00:50:32;5.47;;;4.67;;
1344;SDS011;15375;48.540;9.268;2024-03-17T00:52:57;6.63;;;4.73;;
1344;SDS011;15375;48.540;9.268;2024-03-17T00:55:23;5.40;;;4.73;;
1344;SDS011;15375;48.540;9.268;2024-03-17T00:57:48;7.03;;;4.80;;
1344;SDS011;15375;48.540;9.268;2024-03-17T01:00:13;5.33;;;4.73;;
1344;SDS011;15375;48.540;9.268;2024-03-17T01:02:40;8.77;;;6.30;;
1344;SDS011;15375;48.540;9.268;2024-03-17T01:05:06;6.20;;;5.30;;
1344;SDS011;15375;48.540;9.268;2024-03-17T01:07:32;7.30;;;6.03;;
1344;SDS011;15375;48.540;9.268;2024-03-17T01:09:58;8.80;;;5.70;;
1344;SDS011;15375;48.540;9.268;2024-03-17T01:12:23;11.43;;;5.60;;
1344;SDS011;15375;48.540;9.268;2024-03-17T01:14:49;6.17;;;5.57;;
1344;SDS011;15375;48.540;9.268;2024-03-17T01:17:14;10.73;;;5.50;;
1344;SDS011;15375;48.540;9.268;2024-03-17T01:19:39;7.00;;;5.30;;
1344;SDS011;15375;48.540;9.268;2024-03-17T01:22:05;8.10;;;5.90;;
1344;SDS011;15375;48.540;9.268;2024-03-17T01:24:30;6.07;;;5.53;;
1344;SDS011;15375;48.540;9.268;2024-03-17T01:26:56;7.90;;;6.10;;
1344;SDS011;15375;48.540;9.268;2024-03-17T01:29:26;6.70;;;6.00;;
1344;SDS011;15375;48.540;9.268;2024-03-17T01:31:51;8.23;;;6.67;;
1344;SDS011;15375;48.540;9.268;2024-03-17T01:34:18;8.10;;;6.13;;
1344;SDS011;15375;48.540;9.268;2024-03-17T01:36:44;7.53;;;6.83;;
1344;SDS011;15375;48.540;9.268;2024-03-17T01:39:09;6.13;;;5.60;;
1344;SDS011;15375;48.540;9.268;2024-03-17T01:41:34;6.73;;;5.40;;
1344;SDS011;15375;48.540;9.268;2024-03-17T01:44:00;6.03;;;5.43;;
1344;SDS011;15375;48.540;9.268;2024-03-17T01:46:25;7.97;;;5.17;;
1344;SDS011;15375;48.540;9.268;2024-03-17T01:48:51;6.40;;;5.20;;
1344;SDS011;15375;48.540;9.268;2024-03-17T01:51:16;6.50;;;5.83;;
1344;SDS011;15375;48.540;9.268;2024-03-17T01:53:42;6.63;;;5.10;;
1344;SDS011;15375;48.540;9.268;2024-03-17T01:56:10;7.73;;;5.50;;
1344;SDS011;15375;48.540;9.268;2024-03-17T01:58:36;6.17;;;4.67;;
1344;SDS011;15375;48.540;9.268;2024-03-17T02:01:02;7.33;;;4.90;;
1344;SDS011;15375;48.540;9.268;2024-03-17T02:03:29;5.93;;;4.93;;
1344;SDS011;15375;48.540;9.268;2024-03-17T02:05:54;8.30;;;5.00;;
1344;SDS011;15375;48.540;9.268;2024-03-17T02:08:20;7.63;;;5.57;;
1344;SDS011;15375;48.540;9.268;2024-03-17T02:10:51;7.23;;;5.10;;
1344;SDS011;15375;48.540;9.268;2024-03-17T02:13:18;6.10;;;4.73;;
1344;SDS011;15375;48.540;9.268;2024-03-17T02:15:43;6.47;;;4.80;;
1344;SDS011;15375;48.540;9.268;2024-03-17T02:18:09;8.30;;;5.27;;
1344;SDS011;15375;48.540;9.268;2024-03-17T02:20:34;6.30;;;5.00;;
1344;SDS011;15375;48.540;9.268;2024-03-17T02:23:18;9.23;;;5.60;;
1344;SDS011;15375;48.540;9.268;2024-03-17T02:25:43;4.70;;;4.23;;
1344;SDS011;15375;48.540;9.268;2024-03-17T02:28:11;5.27;;;4.70;;
1344;SDS011;15375;48.540;9.268;2024-03-17T02:30:36;5.60;;;5.00;;
1344;SDS011;15375;48.540;9.268;2024-03-17T02:33:02;7.17;;;4.87;;
1344;SDS011;15375;48.540;9.268;2024-03-17T02:35:28;7.03;;;4.77;;
1344;SDS011;15375;48.540;9.268;2024-03-17T02:37:53;5.40;;;4.60;;
1344;SDS011;15375;48.540;9.268;2024-03-17T02:40:18;7.30;;;5.97;;
1344;SDS011;15375;48.540;9.268;2024-03-17T02:42:44;10.43;;;6.10;;
1344;SDS011;15375;48.540;9.268;2024-03-17T02:45:10;6.40;;;5.80;;
1344;SDS011;15375;48.540;9.268;2024-03-17T02:47:38;8.53;;;5.90;;
1344;SDS011;15375;48.540;9.268;2024-03-17T02:50:04;13.17;;;6.90;;
1344;SDS011;15375;48.540;9.268;2024-03-17T02:52:30;7.37;;;6.57;;
1344;SDS011;15375;48.540;9.268;2024-03-17T02:54:56;9.60;;;7.03;;
1344;SDS011;15375;48.540;9.268;2024-03-17T02:57:22;6.90;;;6.20;;
1344;SDS011;15375;48.540;9.268;2024-03-17T02:59:54;6.97;;;6.23;;
1344;SDS011;15375;48.540;9.268;2024-03-17T03:02:20;8.87;;;6.37;;
1344;SDS011;15375;48.540;9.268;2024-03-17T03:04:45;6.13;;;5.60;;
1344;SDS011;15375;48.540;9.268;2024-03-17T03:07:10;7.70;;;6.07;;
1344;SDS011;15375;48.540;9.268;2024-03-17T03:09:36;8.20;;;6.10;;
1344;SDS011;15375;48.540;9.268;2024-03-17T03:12:01;6.53;;;5.93;;
1344;SDS011;15375;48.540;9.268;2024-03-17T03:14:28;10.23;;;7.00;;
1344;SDS011;15375;48.540;9.268;2024-03-17T03:16:53;6.87;;;5.63;;
1344;SDS011;15375;48.540;9.268;2024-03-17T03:19:19;7.67;;;6.90;;
1344;SDS011;15375;48.540;9.268;2024-03-17T03:21:44;8.90;;;6.80;;
1344;SDS011;15375;48.540;9.268;2024-03-17T03:24:10;8.10;;;7.00;;
1344;SDS011;15375;48.540;9.268;2024-03-17T03:26:37;9.30;;;7.87;;
1344;SDS011;15375;48.540;9.268;2024-03-17T03:29:03;7.30;;;6.57;;
1344;SDS011;15375;48.540;9.268;2024-03-17T03:31:30;8.90;;;8.00;;
1344;SDS011;15375;48.540;9.268;2024-03-17T03:33:56;9.00;;;8.00;;
1344;SDS011;15375;48.540;9.268;2024-03-17T03:36:22;11.07;;;8.13;;
1344;SDS011;15375;48.540;9.268;2024-03-17T03:38:47;8.10;;;7.30;;
1344;SDS011;15375;48.540;9.268;2024-03-17T03:41:13;7.57;;;6.87;;
1344;SDS011;15375;48.540;9.268;2024-03-17T03:43:39;10.20;;;7.23;;
1344;SDS011;15375;48.540;9.268;2024-03-17T03:46:06;10.10;;;7.83;;
1344;SDS011;15375;48.540;9.268;2024-03-17T03:48:32;9.30;;;7.80;;
1344;SDS011;15375;48.540;9.268;2024-03-17T03:50:59;10.20;;;7.90;;
1344;SDS011;15375;48.540;9.268;2024-03-17T03:53:27;8.13;;;7.37;;
1344;SDS011;15375;48.540;9.268;2024-03-17T03:55:53;11.00;;;7.80;;
1344;SDS011;15375;48.540;9.268;2024-03-17T03:58:18;8.57;;;7.67;;
1344;SDS011;15375;48.540;9.268;2024-03-17T04:00:43;11.87;;;6.70;;
1344;SDS011;15375;48.540;9.268;2024-03-17T04:03:09;11.97;;;7.40;;
1344;SDS011;15375;48.540;9.268;2024-03-17T04:05:34;10.60;;;8.40;;
1344;SDS011;15375;48.540;9.268;2024-03-17T04:08:00;8.20;;;7.03;;
1344;SDS011;15375;48.540;9.268;2024-03-17T04:10:25;9.10;;;7.70;;
1344;SDS011;15375;48.540;9.268;2024-03-17T04:12:51;8.70;;;7.67;;
1344;SDS011;15375;48.540;9.268;2024-03-17T04:15:17;10.13;;;7.27;;
1344;SDS011;15375;48.540;9.268;2024-03-17T04:17:43;9.13;;;8.03;;
1344;SDS011;15375;48.540;9.268;2024-03-17T04:20:08;10.00;;;7.70;;
1344;SDS011;15375;48.540;9.268;2024-03-17T04:22:38;9.60;;;7.33;;
1344;SDS011;15375;48.540;9.268;2024-03-17T04:25:04;9.70;;;8.73;;
1344;SDS011;15375;48.540;9.268;2024-03-17T04:27:29;10.03;;;8.93;;
1344;SDS011;15375;48.540;9.268;2024-03-17T04:29:55;12.90;;;9.63;;
1344;SDS011;15375;48.540;9.268;2024-03-17T04:32:23;12.00;;;9.40;;
1344;SDS011;15375;48.540;9.268;2024-03-17T04:34:49;10.30;;;8.43;;
1344;SDS011;15375;48.540;9.268;2024-03-17T04:37:15;10.37;;;8.27;;
1344;SDS011;15375;48.540;9.268;2024-03-17T04:39:42;8.60;;;7.00;;
1344;SDS011;15375;48.540;9.268;2024-03-17T04:42:09;9.00;;;7.30;;
1344;SDS011;15375;48.540;9.268;2024-03-17T04:44:42;9.17;;;7.40;;
1344;SDS011;15375;48.540;9.268;2024-03-17T04:47:11;10.73;;;8.33;;
1344;SDS011;15375;48.540;9.268;2024-03-17T04:49:37;12.33;;;8.40;;
1344;SDS011;15375;48.540;9.268;2024-03-17T04:52:03;10.53;;;7.90;;
1344;SDS011;15375;48.540;9.268;2024-03-17T04:54:30;9.77;;;7.67;;
1344;SDS011;15375;48.540;9.268;2024-03-17T04:56:56;9.67;;;7.70;;
1344;SDS011;15375;48.540;9.268;2024-03-17T04:59:21;8.33;;;7.53;;
1344;SDS011;15375;48.540;9.268;2024-03-17T05:01:50;9.17;;;7.87;;
1344;SDS011;15375;48.540;9.268;2024-03-17T05:04:15;10.87;;;7.47;;
1344;SDS011;15375;48.540;9.268;2024-03-17T05:06:41;9.60;;;7.80;;
1344;SDS011;15375;48.540;9.268;2024-03-17T05:09:12;10.23;;;8.03;;
1344;SDS011;15375;48.540;9.268;2024-03-17T05:11:38;7.60;;;6.40;;
1344;SDS011;15375;48.540;9.268;2024-03-17T05:14:04;9.73;;;7.37;;
1344;SDS011;15375;48.540;9.268;2024-03-17T05:16:30;10.40;;;7.60;;
1344;SDS011;15375;48.540;9.268;2024-03-17T05:18:55;9.00;;;7.27;;
1344;SDS011;15375;48.540;9.268;2024-03-17T05:21:21;8.93;;;7.40;;
1344;SDS011;15375;48.540;9.268;2024-03-17T05:23:47;8.03;;;7.27;;
1344;SDS011;15375;48.540;9.268;2024-03-17T05:26:13;10.83;;;8.70;;
1344;SDS011;15375;48.540;9.268;2024-03-17T05:28:39;10.20;;;8.13;;
1344;SDS011;15375;48.540;9.268;2024-03-17T05:31:04;8.43;;;7.63;;
1344;SDS011;15375;48.540;9.268;2024-03-17T05:33:29;9.00;;;8.10;;
1344;SDS011;15375;48.540;9.268;2024-03-17T05:35:56;11.80;;;8.40;;
1344;SDS011;15375;48.540;9.268;2024-03-17T05:38:23;10.70;;;9.17;;
1344;SDS011;15375;48.540;9.268;2024-03-17T05:41:22;9.17;;;8.27;;
1344;SDS011;15375;48.540;9.268;2024-03-17T05:43:41;9.70;;;8.80;;
1344;SDS011;15375;48.540;9.268;2024-03-17T05:46:08;10.17;;;8.90;;
1344;SDS011;15375;48.540;9.268;2024-03-17T05:48:35;10.83;;;9.73;;
1344;SDS011;15375;48.540;9.268;2024-03-17T05:51:04;10.67;;;8.90;;
1344;SDS011;15375;48.540;9.268;2024-03-17T05:53:31;11.80;;;10.47;;
1344;SDS011;15375;48.540;9.268;2024-03-17T05:56:00;10.73;;;9.63;;
1344;SDS011;15375;48.540;9.268;2024-03-17T05:58:26;13.13;;;9.53;;
1344;SDS011;15375;48.540;9.268;2024-03-17T06:00:52;13.53;;;10.60;;
1344;SDS011;15375;48.540;9.268;2024-03-17T06:03:17;14.37;;;10.00;;
1344;SDS011;15375;48.540;9.268;2024-03-17T06:05:43;11.93;;;9.90;;
1344;SDS011;15375;48.540;9.268;2024-03-17T06:08:12;12.80;;;8.87;;
1344;SDS011;15375;48.540;9.268;2024-03-17T06:10:41;10.00;;;9.00;;
1344;SDS011;15375;48.540;9.268;2024-03-17T06:13:08;12.43;;;10.30;;
1344;SDS011;15375;48.540;9.268;2024-03-17T06:15:37;11.03;;;9.90;;
1344;SDS011;15375;48.540;9.268;2024-03-17T06:18:03;12.53;;;10.10;;
1344;SDS011;15375;48.540;9.268;2024-03-17T06:20:28;11.73;;;10.10;;
1344;SDS011;15375;48.540;9.268;2024-03-17T06:22:54;13.50;;;10.27;;
1344;SDS011;15375;48.540;9.268;2024-03-17T06:25:20;14.00;;;11.10;;
1344;SDS011;15375;48.540;9.268;2024-03-17T06:27:48;13.83;;;11.17;;
1344;SDS011;15375;48.540;9.268;2024-03-17T06:30:15;17.63;;;9.87;;
1344;SDS011;15375;48.540;9.268;2024-03-17T06:32:41;14.40;;;10.50;;
1344;SDS011;15375;48.540;9.268;2024-03-17T06:35:07;11.07;;;9.70;;
1344;SDS011;15375;48.540;9.268;2024-03-17T06:37:33;14.03;;;10.80;;
1344;SDS011;15375;48.540;9.268;2024-03-17T06:39:58;14.73;;;11.90;;
1344;SDS011;15375;48.540;9.268;2024-03-17T06:42:23;15.10;;;12.10;;
1344;SDS011;15375;48.540;9.268;2024-03-17T06:44:49;15.30;;;11.40;;
1344;SDS011;15375;48.540;9.268;2024-03-17T06:47:14;13.23;;;10.60;;
1344;SDS011;15375;48.540;9.268;2024-03-17T06:49:39;16.70;;;12.40;;
1344;SDS011;15375;48.540;9.268;2024-03-17T06:52:05;11.87;;;10.67;;
1344;SDS011;15375;48.540;9.268;2024-03-17T06:54:30;14.43;;;11.40;;
1344;SDS011;15375;48.540;9.268;2024-03-17T06:56:58;15.30;;;10.70;;
1344;SDS011;15375;48.540;9.268;2024-03-17T06:59:23;11.33;;;10.00;;
1344;SDS011;15375;48.540;9.268;2024-03-17T07:01:49;11.13;;;9.93;;
1344;SDS011;15375;48.540;9.268;2024-03-17T07:04:15;12.97;;;10.47;;
1344;SDS011;15375;48.540;9.268;2024-03-17T07:06:41;10.73;;;9.60;;
1344;SDS011;15375;48.540;9.268;2024-03-17T07:09:07;11.93;;;10.60;;
1344;SDS011;15375;48.540;9.268;2024-03-17T07:11:33;12.67;;;10.50;;
1344;SDS011;15375;48.540;9.268;2024-03-17T07:13:59;8.60;;;7.77;;
1344;SDS011;15375;48.540;9.268;2024-03-17T07:16:24;12.53;;;9.37;;
1344;SDS011;15375;48.540;9.268;2024-03-17T07:18:52;11.17;;;8.57;;
1344;SDS011;15375;48.540;9.268;2024-03-17T07:21:18;8.47;;;7.63;;
1344;SDS011;15375;48.540;9.268;2024-03-17T07:23:43;8.50;;;7.07;;
1344;SDS011;15375;48.540;9.268;2024-03-17T07:26:09;16.83;;;7.93;;
1344;SDS011;15375;48.540;9.268;2024-03-17T07:28:34;7.97;;;7.07;;
1344;SDS011;15375;48.540;9.268;2024-03-17T07:31:00;7.97;;;7.20;;
1344;SDS011;15375;48.540;9.268;2024-03-17T07:33:26;9.57;;;5.87;;
1344;SDS011;15375;48.540;9.268;2024-03-17T07:35:56;9.20;;;7.87;;
1344;SDS011;15375;48.540;9.268;2024-03-17T07:38:25;8.50;;;7.60;;
1344;SDS011;15375;48.540;9.268;2024-03-17T07:41:01;8.00;;;7.20;;
1344;SDS011;15375;48.540;9.268;2024-03-17T07:43:31;9.90;;;8.90;;
1344;SDS011;15375;48.540;9.268;2024-03-17T07:46:05;9.80;;;8.40;;
1344;SDS011;15375;48.540;9.268;2024-03-17T07:48:36;10.93;;;8.20;;
1344;SDS011;15375;48.540;9.268;2024-03-17T07:51:03;9.87;;;8.87;;
1344;SDS011;15375;48.540;9.268;2024-03-17T07:53:30;10.50;;;8.80;;
1344;SDS011;15375;48.540;9.268;2024-03-17T07:56:06;10.70;;;9.70;;
1344;SDS011;15375;48.540;9.268;2024-03-17T07:58:34;12.37;;;8.60;;
1344;SDS011;15375;48.540;9.268;2024-03-17T08:01:01;13.70;;;10.20;;
1344;SDS011;15375;48.540;9.268;2024-03-17T08:03:32;13.40;;;9.20;;
1344;SDS011;15375;48.540;9.268;2024-03-17T08:05:59;8.60;;;7.70;;
1344;SDS011;15375;48.540;9.268;2024-03-17T08:08:26;10.57;;;9.30;;
1344;SDS011;15375;48.540;9.268;2024-03-17T08:10:51;8.13;;;7.43;;
1344;SDS011;15375;48.540;9.268;2024-03-17T08:13:17;9.07;;;8.17;;
1344;SDS011;15375;48.540;9.268;2024-03-17T08:15:44;8.83;;;7.93;;
1344;SDS011;15375;48.540;9.268;2024-03-17T08:18:10;8.03;;;7.30;;
1344;SDS011;15375;48.540;9.268;2024-03-17T08:20:40;8.00;;;7.27;;
1344;SDS011;15375;48.540;9.268;2024-03-17T08:23:10;9.07;;;8.20;;
1344;SDS011;15375;48.540;9.268;2024-03-17T08:25:36;8.50;;;7.70;;
1344;SDS011;15375;48.540;9.268;2024-03-17T08:28:02;8.40;;;7.60;;
1344;SDS011;15375;48.540;9.268;2024-03-17T08:30:27;8.03;;;7.33;;
1344;SDS011;15375;48.540;9.268;2024-03-17T08:32:53;8.87;;;7.43;;
1344;SDS011;15375;48.540;9.268;2024-03-17T08:35:19;8.13;;;7.30;;
1344;SDS011;15375;48.540;9.268;2024-03-17T08:37:44;8.77;;;8.03;;
1344;SDS011;15375;48.540;9.268;2024-03-17T08:40:10;6.87;;;6.27;;
1344;SDS011;15375;48.540;9.268;2024-03-17T08:42:36;9.13;;;6.83;;
1344;SDS011;15375;48.540;9.268;2024-03-17T08:45:01;7.37;;;6.63;;
1344;SDS011;15375;48.540;9.268;2024-03-17T08:47:27;9.43;;;8.27;;
1344;SDS011;15375;48.540;9.268;2024-03-17T08:49:53;11.10;;;6.77;;
1344;SDS011;15375;48.540;9.268;2024-03-17T08:52:19;6.70;;;6.00;;
1344;SDS011;15375;48.540;9.268;2024-03-17T08:54:46;6.93;;;6.30;;
1344;SDS011;15375;48.540;9.268;2024-03-17T08:57:12;8.30;;;7.50;;
1344;SDS011;15375;48.540;9.268;2024-03-17T08:59:37;7.87;;;7.07;;
1344;SDS011;15375;48.540;9.268;2024-03-17T09:02:03;8.23;;;6.70;;
1344;SDS011;15375;48.540;9.268;2024-03-17T09:04:28;8.80;;;8.00;;
1344;SDS011;15375;48.540;9.268;2024-03-17T09:06:54;8.07;;;6.70;;
1344;SDS011;15375;48.540;9.268;2024-03-17T09:09:21;7.90;;;7.20;;
1344;SDS011;15375;48.540;9.268;2024-03-17T09:11:47;7.50;;;6.80;;
1344;SDS011;15375;48.540;9.268;2024-03-17T09:14:12;8.63;;;7.57;;
1344;SDS011;15375;48.540;9.268;2024-03-17T09:16:38;8.37;;;7.57;;
1344;SDS011;15375;48.540;9.268;2024-03-17T09:19:03;9.30;;;8.40;;
1344;SDS011;15375;48.540;9.268;2024-03-17T09:21:28;9.30;;;8.20;;
1344;SDS011;15375;48.540;9.268;2024-03-17T09:23:54;9.87;;;7.60;;
1344;SDS011;15375;48.540;9.268;2024-03-17T09:26:19;7.43;;;6.23;;
1344;SDS011;15375;48.540;9.268;2024-03-17T09:28:45;6.83;;;5.70;;
1344;SDS011;15375;48.540;9.268;2024-03-17T09:31:10;5.77;;;5.23;;
1344;SDS011;15375;48.540;9.268;2024-03-17T09:33:36;5.40;;;4.83;;
1344;SDS011;15375;48.540;9.268;2024-03-17T09:36:08;6.23;;;5.60;;
1344;SDS011;15375;48.540;9.268;2024-03-17T09:38:38;6.23;;;5.23;;
1344;SDS011;15375;48.540;9.268;2024-03-17T09:41:03;8.47;;;5.03;;
1344;SDS011;15375;48.540;9.268;2024-03-17T09:43:32;6.33;;;5.00;;
1344;SDS011;15375;48.540;9.268;2024-03-17T09:46:01;5.73;;;5.23;;
1344;SDS011;15375;48.540;9.268;2024-03-17T09:48:28;7.83;;;5.17;;
1344;SDS011;15375;48.540;9.268;2024-03-17T09:50:57;5.27;;;4.70;;
1344;SDS011;15375;48.540;9.268;2024-03-17T09:53:27;5.70;;;5.10;;
1344;SDS011;15375;48.540;9.268;2024-03-17T09:56:05;4.87;;;4.47;;
1344;SDS011;15375;48.540;9.268;2024-03-17T09:58:34;4.30;;;3.90;;
1344;SDS011;15375;48.540;9.268;2024-03-17T10:01:00;5.23;;;4.57;;
1344;SDS011;15375;48.540;9.268;2024-03-17T10:03:47;5.60;;;5.00;;
1344;SDS011;15375;48.540;9.268;2024-03-17T10:06:18;7.23;;;4.43;;
1344;SDS011;15375;48.540;9.268;2024-03-17T10:08:45;5.27;;;4.20;;
1344;SDS011;15375;48.540;9.268;2024-03-17T10:11:12;4.07;;;3.77;;
1344;SDS011;15375;48.540;9.268;2024-03-17T10:13:40;3.37;;;3.07;;
1344;SDS011;15375;48.540;9.268;2024-03-17T10:16:07;7.37;;;6.30;;
1344;SDS011;15375;48.540;9.268;2024-03-17T10:18:46;3.93;;;3.63;;
1344;SDS011;15375;48.540;9.268;2024-03-17T10:21:25;5.00;;;4.10;;
1344;SDS011;15375;48.540;9.268;2024-03-17T10:24:05;4.23;;;3.83;;
1344;SDS011;15375;48.540;9.268;2024-03-17T10:26:41;3.90;;;3.53;;
1344;SDS011;15375;48.540;9.268;2024-03-17T10:29:19;9.80;;;3.57;;
1344;SDS011;15375;48.540;9.268;2024-03-17T10:31:56;7.93;;;3.33;;
1344;SDS011;15375;48.540;9.268;2024-03-17T10:34:27;4.70;;;3.60;;
1344;SDS011;15375;48.540;9.268;2024-03-17T10:37:18;5.00;;;3.03;;
1344;SDS011;15375;48.540;9.268;2024-03-17T10:39:52;3.30;;;2.80;;
1344;SDS011;15375;48.540;9.268;2024-03-17T10:42:24;3.47;;;1.97;;
1344;SDS011;15375;48.540;9.268;2024-03-17T10:44:53;3.30;;;2.00;;
1344;SDS011;15375;48.540;9.268;2024-03-17T10:47:21;4.70;;;2.60;;
1344;SDS011;15375;48.540;9.268;2024-03-17T10:49:49;2.90;;;2.20;;
1344;SDS011;15375;48.540;9.268;2024-03-17T10:52:16;6.07;;;2.57;;
1344;SDS011;15375;48.540;9.268;2024-03-17T10:54:52;8.60;;;3.50;;
1344;SDS011;15375;48.540;9.268;2024-03-17T10:57:32;8.13;;;2.57;;
1344;SDS011;15375;48.540;9.268;2024-03-17T11:00:10;3.40;;;2.80;;
1344;SDS011;15375;48.540;9.268;2024-03-17T11:02:42;4.20;;;3.80;;
1344;SDS011;15375;48.540;9.268;2024-03-17T11:05:13;5.53;;;3.87;;
1344;SDS011;15375;48.540;9.268;2024-03-17T11:07:41;4.70;;;4.27;;
1344;SDS011;15375;48.540;9.268;2024-03-17T11:10:14;6.70;;;4.50;;
1344;SDS011;15375;48.540;9.268;2024-03-17T11:17:48;6.10;;;3.70;;
1344;SDS011;15375;48.540;9.268;2024-03-17T11:20:21;5.07;;;2.50;;
1344;SDS011;15375;48.540;9.268;2024-03-17T11:22:48;4.40;;;2.57;;
1344;SDS011;15375;48.540;9.268;2024-03-17T11:27:55;5.10;;;3.30;;
1344;SDS011;15375;48.540;9.268;2024-03-17T11:47:02;4.67;;;3.43;;
1344;SDS011;15375;48.540;9.268;2024-03-17T11:49:36;2.80;;;2.60;;
1344;SDS011;15375;48.540;9.268;2024-03-17T11:52:03;2.83;;;2.20;;
1344;SDS011;15375;48.540;9.268;2024-03-17T11:54:49;2.03;;;1.73;;
1344;SDS011;15375;48.540;9.268;2024-03-17T11:57:20;2.60;;;1.80;;
1344;SDS011;15375;48.540;9.268;2024-03-17T11:59:49;5.00;;;2.33;;
1344;SDS011;15375;48.540;9.268;2024-03-17T12:05:01;3.30;;;2.07;;
1344;SDS011;15375;48.540;9.268;2024-03-17T12:07:27;2.90;;;2.07;;
1344;SDS011;15375;48.540;9.268;2024-03-17T12:09:55;3.10;;;1.60;;
1344;SDS011;15375;48.540;9.268;2024-03-17T12:12:26;3.93;;;2.10;;
1344;SDS011;15375;48.540;9.268;2024-03-17T12:15:01;3.00;;;1.83;;
1344;SDS011;15375;48.540;9.268;2024-03-17T12:17:28;3.20;;;1.47;;
1344;SDS011;15375;48.540;9.268;2024-03-17T12:19:54;3.23;;;1.57;;
1344;SDS011;15375;48.540;9.268;2024-03-17T12:22:23;6.33;;;1.97;;
1344;SDS011;15375;48.540;9.268;2024-03-17T12:24:54;1.80;;;1.40;;
1344;SDS011;15375;48.540;9.268;2024-03-17T12:27:24;4.60;;;1.60;;
1344;SDS011;15375;48.540;9.268;2024-03-17T12:29:51;3.50;;;1.57;;
1344;SDS011;15375;48.540;9.268;2024-03-17T12:32:21;1.83;;;1.20;;
1344;SDS011;15375;48.540;9.268;2024-03-17T12:34:55;1.80;;;1.00;;
1344;SDS011;15375;48.540;9.268;2024-03-17T12:37:26;1.50;;;1.00;;
1344;SDS011;15375;48.540;9.268;2024-03-17T12:39:59;2.23;;;1.30;;
1344;SDS011;15375;48.540;9.268;2024-03-17T12:42:25;1.93;;;1.20;;
1344;SDS011;15375;48.540;9.268;2024-03-17T12:44:53;2.60;;;1.60;;
1344;SDS011;15375;48.540;9.268;2024-03-17T12:47:23;2.00;;;1.50;;
1344;SDS011;15375;48.540;9.268;2024-03-17T12:49:50;1.50;;;1.40;;
1344;SDS011;15375;48.540;9.268;2024-03-17T12:52:20;2.00;;;1.30;;
1344;SDS011;15375;48.540;9.268;2024-03-17T12:54:45;3.83;;;1.80;;
1344;SDS011;15375;48.540;9.268;2024-03-17T12:57:49;1.43;;;1.20;;
1344;SDS011;15375;48.540;9.268;2024-03-17T13:00:34;4.43;;;1.47;;
1344;SDS011;15375;48.540;9.268;2024-03-17T13:03:01;2.40;;;1.40;;
1344;SDS011;15375;48.540;9.268;2024-03-17T13:05:28;1.53;;;1.43;;
1344;SDS011;15375;48.540;9.268;2024-03-17T13:07:54;1.83;;;1.30;;
1344;SDS011;15375;48.540;9.268;2024-03-17T13:10:22;1.57;;;1.17;;
1344;SDS011;15375;48.540;9.268;2024-03-17T13:12:57;4.20;;;1.53;;
1344;SDS011;15375;48.540;9.268;2024-03-17T13:15:28;3.57;;;2.00;;
1344;SDS011;15375;48.540;9.268;2024-03-17T13:17:56;4.73;;;1.83;;
1344;SDS011;15375;48.540;9.268;2024-03-17T13:20:22;4.00;;;1.73;;
1344;SDS011;15375;48.540;9.268;2024-03-17T13:22:47;2.00;;;1.20;;
1344;SDS011;15375;48.540;9.268;2024-03-17T13:27:38;1.20;;;1.10;;
1344;SDS011;15375;48.540;9.268;2024-03-17T13:30:03;1.93;;;1.20;;
1344;SDS011;15375;48.540;9.268;2024-03-17T13:32:31;1.70;;;1.50;;
1344;SDS011;15375;48.540;9.268;2024-03-17T13:34:56;1.63;;;1.20;;
1344;SDS011;15375;48.540;9.268;2024-03-17T13:37:22;2.07;;;1.10;;
1344;SDS011;15375;48.540;9.268;2024-03-17T13:39:47;1.63;;;1.07;;
1344;SDS011;15375;48.540;9.268;2024-03-17T13:42:14;1.60;;;1.50;;
1344;SDS011;15375;48.540;9.268;2024-03-17T13:44:39;3.00;;;1.50;;
1344;SDS011;15375;48.540;9.268;2024-03-17T13:47:05;3.03;;;1.40;;
1344;SDS011;15375;48.540;9.268;2024-03-17T13:49:30;4.53;;;1.30;;
1344;SDS011;15375;48.540;9.268;2024-03-17T13:51:56;3.17;;;1.60;;
1344;SDS011;15375;48.540;9.268;2024-03-17T13:54:22;2.33;;;1.30;;
1344;SDS011;15375;48.540;9.268;2024-03-17T13:56:50;2.10;;;1.90;;
1344;SDS011;15375;48.540;9.268;2024-03-17T13:59:16;3.60;;;1.83;;
1344;SDS011;15375;48.540;9.268;2024-03-17T14:01:45;2.27;;;1.20;;
1344;SDS011;15375;48.540;9.268;2024-03-17T14:04:14;3.40;;;1.63;;
1344;SDS011;15375;48.540;9.268;2024-03-17T14:06:40;4.60;;;1.43;;
1344;SDS011;15375;48.540;9.268;2024-03-17T14:09:06;2.23;;;1.33;;
1344;SDS011;15375;48.540;9.268;2024-03-17T14:11:34;3.93;;;1.50;;
1344;SDS011;15375;48.540;9.268;2024-03-17T14:14:00;2.67;;;1.80;;
1344;SDS011;15375;48.540;9.268;2024-03-17T14:16:25;2.13;;;1.03;;
1344;SDS011;15375;48.540;9.268;2024-03-17T14:18:50;4.20;;;1.60;;
1344;SDS011;15375;48.540;9.268;2024-03-17T14:21:16;1.53;;;1.20;;
1344;SDS011;15375;48.540;9.268;2024-03-17T14:23:41;5.23;;;1.43;;
1344;SDS011;15375;48.540;9.268;2024-03-17T14:26:08;2.23;;;1.03;;
1344;SDS011;15375;48.540;9.268;2024-03-17T14:28:34;2.10;;;1.20;;
1344;SDS011;15375;48.540;9.268;2024-03-17T14:31:00;3.73;;;1.47;;
1344;SDS011;15375;48.540;9.268;2024-03-17T14:33:26;1.43;;;1.30;;
1344;SDS011;15375;48.540;9.268;2024-03-17T14:35:55;3.90;;;1.43;;
1344;SDS011;15375;48.540;9.268;2024-03-17T14:38:23;2.27;;;1.43;;
1344;SDS011;15375;48.540;9.268;2024-03-17T14:40:51;3.10;;;1.60;;
1344;SDS011;15375;48.540;9.268;2024-03-17T14:43:17;2.37;;;1.27;;
1344;SDS011;15375;48.540;9.268;2024-03-17T14:45:42;2.70;;;1.30;;
1344;SDS011;15375;48.540;9.268;2024-03-17T14:48:07;2.63;;;1.53;;
1344;SDS011;15375;48.540;9.268;2024-03-17T14:50:34;2.33;;;1.30;;
1344;SDS011;15375;48.540;9.268;2024-03-17T14:53:01;3.47;;;1.50;;
1344;SDS011;15375;48.540;9.268;2024-03-17T14:55:27;2.60;;;1.30;;
1344;SDS011;15375;48.540;9.268;2024-03-17T14:57:53;1.30;;;1.20;;
1344;SDS011;15375;48.540;9.268;2024-03-17T15:00:19;1.20;;;1.10;;
1344;SDS011;15375;48.540;9.268;2024-03-17T15:02:45;1.80;;;1.10;;
1344;SDS011;15375;48.540;9.268;2024-03-17T15:05:12;3.73;;;1.20;;
1344;SDS011;15375;48.540;9.268;2024-03-17T15:07:39;1.83;;;1.23;;
1344;SDS011;15375;48.540;9.268;2024-03-17T15:10:05;5.53;;;1.63;;
1344;SDS011;15375;48.540;9.268;2024-03-17T15:12:32;3.00;;;1.10;;
1344;SDS011;15375;48.540;9.268;2024-03-17T15:14:57;4.37;;;1.30;;
1344;SDS011;15375;48.540;9.268;2024-03-17T15:17:22;1.50;;;1.40;;
1344;SDS011;15375;48.540;9.268;2024-03-17T15:19:48;3.33;;;1.47;;
1344;SDS011;15375;48.540;9.268;2024-03-17T15:22:13;3.73;;;1.20;;
1344;SDS011;15375;48.540;9.268;2024-03-17T15:24:39;2.93;;;1.30;;
1344;SDS011;15375;48.540;9.268;2024-03-17T15:27:04;1.13;;;0.73;;
1344;SDS011;15375;48.540;9.268;2024-03-17T15:29:30;1.83;;;1.00;;